Flight Track Log - Related Links

Times and Time Zones

All times are in EST time to prevent confusion due to time zone crossing. See the N911PS flight status page for this flight to view local times or setup timezone preferences in your user account.

Time Position Orientation Groundspeed Altitude Reporting Facility
EST Latitude Longitude Course Direction KTS MPH feet Rate Location/Type
Sun 01:39:00 PM 40.5383 -75.7243 260° West  Level Estimated
Sun 01:40:00 PM 40.5316 -75.7715 259° West  Level FlightAware Approximate
Sun 01:41:00 PM 40.5249 -75.8186 259° West  Level FlightAware Approximate
Sun 01:42:00 PM 40.5181 -75.8657 259° West  Level FlightAware Approximate
Sun 01:43:00 PM 40.5113 -75.9128 259° West  Level FlightAware Approximate
Sun 01:44:00 PM 40.5046 -75.9598 259° West  Level FlightAware Approximate
Sun 01:45:00 PM 40.4977 -76.0069 259° West  Level FlightAware Approximate
Sun 01:46:00 PM 40.4909 -76.0540 259° West  Level FlightAware Approximate
Sun 01:47:00 PM 40.4844 -76.1011 259° West  Level Estimated
Sun 01:48:00 PM 40.4775 -76.1481 259° West  Level FlightAware Approximate
Sun 01:49:00 PM 40.4707 -76.1952 259° West  Level FlightAware Approximate
Sun 01:50:00 PM 40.4638 -76.2422 259° West  Level FlightAware Approximate
Sun 01:51:00 PM 40.4569 -76.2892 259° West  Level FlightAware Approximate
Sun 01:52:00 PM 40.4500 -76.3362 259° West  Level FlightAware Approximate
Sun 01:53:00 PM 40.4431 -76.3832 259° West  Level FlightAware Approximate
Sun 01:54:00 PM 40.4361 -76.4302 259° West  Level FlightAware Approximate
Sun 01:55:00 PM 40.4292 -76.4772 259° West  Level FlightAware Approximate
Sun 01:56:00 PM 40.4222 -76.5242 259° West  Level FlightAware Approximate
Sun 01:57:00 PM 40.4152 -76.5712 259° West  Level FlightAware Approximate
Sun 01:58:00 PM 40.4082 -76.6181 259° West  Level FlightAware Approximate
Sun 01:59:00 PM 40.4011 -76.6651 259° West  Level FlightAware Approximate
Sun 02:00:00 PM 40.3941 -76.7120 259° West  Level FlightAware Approximate
Sun 02:01:00 PM 40.3870 -76.7590 259° West  Level FlightAware Approximate
Sun 02:02:00 PM 40.3799 -76.8059 259° West  Level FlightAware Approximate
Sun 02:03:00 PM 40.3728 -76.8528 259° West  Level FlightAware Approximate
Sun 02:04:00 PM 40.3656 -76.8997 259° West  Level FlightAware Approximate
Sun 02:05:00 PM 40.3585 -76.9466 259° West  Level FlightAware Approximate
Sun 02:05:51 PM 40.3897 -76.7922 259° West 117 135 6,100  Level Cleveland Center
Sun 02:06:00 PM 40.3513 -76.9935 259° West  Level FlightAware Approximate
Sun 02:06:53 PM 40.3836 -76.8347 259° West 118 136 6,100  Level Cleveland Center
Sun 02:07:00 PM 40.3441 -77.0403 259° West  Level FlightAware Approximate
Sun 02:07:54 PM 40.3778 -76.8758 259° West 116 133 6,100  Level Cleveland Center
Sun 02:08:00 PM 40.3369 -77.0872 259° West  Level FlightAware Approximate
Sun 02:08:56 PM 40.3725 -76.9231 262° West 124 143 6,100  Level Cleveland Center
Sun 02:09:00 PM 40.3297 -77.1340 259° West  Level FlightAware Approximate
Sun 02:09:58 PM 40.3667 -76.9667 260° West 125 144 6,100  Level Cleveland Center
Sun 02:10:00 PM 40.3224 -77.1809 259° West  Level FlightAware Approximate
Sun 02:11:00 PM 40.3152 -77.2277 259° West  Level FlightAware Approximate
Sun 02:11:00 PM 40.3581 -77.0175 257° West 120 138 6,100  Level Cleveland Center
Sun 02:12:02 PM 40.3492 -77.0625 255° West 125 144 6,100  Level Cleveland Center
Sun 02:13:03 PM 40.3411 -77.1056 256° West 124 143 6,100  Level Cleveland Center
Sun 02:14:05 PM 40.3336 -77.1503 258° West 125 144 6,100  Level Cleveland Center
Sun 02:15:07 PM 40.3258 -77.1942 257° West 124 143 6,100  Level Cleveland Center
Sun 02:16:09 PM 40.3194 -77.2392 259° West 119 137 6,100  Level Cleveland Center
Sun 02:17:11 PM 40.3106 -77.2831 255° West 123 142 6,100  Level Cleveland Center
Sun 02:18:13 PM 40.3025 -77.3267 256° West 124 143 6,100  Level Cleveland Center
Sun 02:19:15 PM 40.2956 -77.3667 257° West 117 135 6,100  Level Cleveland Center
Sun 02:20:16 PM 40.2900 -77.4128 261° West 109 125 6,100  Level Cleveland Center
Sun 02:21:18 PM 40.2867 -77.4544 264° West 113 130 6,100  Level Cleveland Center
Sun 02:22:20 PM 40.2839 -77.4936 265° West 115 132 6,100  Level Cleveland Center
Sun 02:23:22 PM 40.2800 -77.5378 263° West 119 137 6,100  Level Cleveland Center
Sun 02:24:24 PM 40.2719 -77.5889 258° West 120 138 6,100  Level Cleveland Center
Sun 02:25:26 PM 40.2667 -77.6281 260° West 113 130 6,100  Level Cleveland Center
Sun 02:26:28 PM 40.2625 -77.6672 262° West 109 125 6,100  Level Cleveland Center
Sun 02:27:30 PM 40.2533 -77.7083 254° West 115 132 6,100  Level Cleveland Center
Sun 02:28:32 PM 40.2447 -77.7500 255° West 118 136 6,100  Level Cleveland Center
Sun 02:29:34 PM 40.2378 -77.7911 258° West 118 136 6,100  Level Cleveland Center
Sun 02:30:36 PM 40.2278 -77.8325 252° West 106 122 6,100 -47 Level Cleveland Center
Sun 02:31:41 PM 40.2219 -77.8725 259° West 104 120 6,000  Descending Cleveland Center
Sun 02:32:40 PM 40.2197 -77.9100 266° West 110 127 6,100  Climbing Cleveland Center
Sun 02:32:48 PM 40.2189 -77.9131 250° West 115 132 6,000  Descending Cleveland Center
Sun 02:33:42 PM 40.2175 -77.9567 268° West 119 137 6,100  Climbing Cleveland Center
Sun 02:33:43 PM 40.2156 -77.9592 224° Southwest 125 144 6,000 -97 Descending Cleveland Center
Sun 02:34:44 PM 40.2103 -78.0050 261° West 123 142 6,000  Level Cleveland Center
Sun 02:35:44 PM 40.2008 -78.0475 254° West 120 138 6,000 98 Level Cleveland Center
Sun 02:35:45 PM 40.2022 -78.0419 72° East 119 137 6,100  Climbing Cleveland Center
Sun 02:36:44 PM 40.1936 -78.0875 256° West 119 137 6,000  Descending Cleveland Center
Sun 02:36:47 PM 40.1947 -78.0844 65° Northeast 119 137 6,100 92 Climbing Cleveland Center
Sun 02:37:49 PM 40.1906 -78.1242 262° West 116 133 6,100 -50 Level Cleveland Center
Sun 02:38:46 PM 40.1922 -78.1639 273° West 102 117 6,000  Descending Cleveland Center
Sun 02:38:51 PM 40.1914 -78.1683 256° West 106 122 6,100  Climbing Cleveland Center
Sun 02:39:46 PM 40.1908 -78.2075 269° West 107 123 6,000  Descending Cleveland Center
Sun 02:39:53 PM 40.1911 -78.2075 360° North 106 122 6,100  Climbing Cleveland Center
Sun 02:40:47 PM 40.1858 -78.2478 260° West 113 130 6,000  Descending Cleveland Center
Sun 02:40:55 PM 40.1861 -78.2483 303° West 111 128 6,100  Climbing Cleveland Center
Sun 02:41:47 PM 40.1806 -78.2881 260° West 115 132 6,000  Descending Cleveland Center
Sun 02:41:57 PM 40.1822 -78.2889 339° North 113 130 6,100  Climbing Cleveland Center
Sun 02:42:48 PM 40.1778 -78.3258 261° West 111 128 6,000  Descending Cleveland Center
Sun 02:42:59 PM 40.1781 -78.3289 277° West 113 130 6,100  Climbing Cleveland Center
Sun 02:43:49 PM 40.1744 -78.3692 263° West 109 125 6,000  Descending Cleveland Center
Sun 02:44:01 PM 40.1742 -78.3689 143° Southeast 112 129 6,100  Climbing Cleveland Center
Sun 02:44:49 PM 40.1711 -78.4125 265° West 117 135 6,000  Descending Cleveland Center
Sun 02:45:03 PM 40.1719 -78.4194 279° West 115 132 6,100  Climbing Cleveland Center
Sun 02:45:50 PM 40.1703 -78.4506 266° West 109 125 6,000  Descending Cleveland Center
Sun 02:46:05 PM 40.1700 -78.4578 267° West 106 122 6,100  Climbing Cleveland Center
Sun 02:46:50 PM 40.1675 -78.4858 263° West 102 117 6,000  Descending Cleveland Center
Sun 02:47:07 PM 40.1681 -78.4953 274° West 104 120 6,100  Climbing Cleveland Center
Sun 02:47:51 PM 40.1639 -78.5317 261° West 113 130 6,000  Descending Cleveland Center
Sun 02:48:09 PM 40.1650 -78.5372 285° West 113 130 6,100 -492 Climbing Cleveland Center
Sun 02:48:52 PM 40.1628 -78.5753 266° West 125 144 5,500 -590 Descending Cleveland Center
Sun 02:49:10 PM 40.1622 -78.5831 265° West 122 140 5,500 -500 Level Cleveland Center
Sun 02:49:52 PM 40.1567 -78.6236 260° West 134 154 5,000 -484 Descending Cleveland Center
Sun 02:50:12 PM 40.1572 -78.6297 277° West 128 147 5,000 -492 Level Cleveland Center
Sun 02:50:53 PM 40.1553 -78.6697 266° West 131 151 4,500 -484 Descending Cleveland Center
Sun 02:51:14 PM 40.1547 -78.6847 267° West 128 147 4,500 -98 Level Cleveland Center
Sun 02:51:54 PM 40.1500 -78.7100 256° West 113 130 4,400  Descending Cleveland Center
Sun 02:52:16 PM 40.1503 -78.7250 271° West 121 139 4,500  Climbing Cleveland Center
Sun 02:53:00 PM 40.1464 -78.7533 260° West 98 113 4,400  Descending Cleveland Center
Sun 02:53:18 PM 40.1478 -78.7592 287° West 104 120 4,500 75 Climbing Cleveland Center
Sun 02:54:20 PM 40.1450 -78.7964 264° West 103 119 4,500  Level Cleveland Center
Sun 02:56:00 PM 40.1125 -78.8635 257° West  Level Estimated
Sun 03:03:00 PM 40.0333 -79.0000 257° West  Level FlightAware Approximate
Sun 03:04:00 PM 40.0389 -79.0150 257° West  Level Estimated

Login

Don't have an account? Register now (free) for customized features, flight alerts, and more!